createdAt,value
2018-01-04T00:01:01.319Z,98769.70
2018-01-04T00:03:27.518Z,98791.44
2018-01-04T00:05:53.770Z,98784.50
2018-01-04T00:08:19.966Z,98787.49
2018-01-04T00:10:46.132Z,98790.91
2018-01-04T00:13:12.417Z,98798.77
2018-01-04T00:15:38.638Z,98798.77
2018-01-04T00:18:05.218Z,98808.74
2018-01-04T00:20:31.754Z,98806.53
2018-01-04T00:22:57.986Z,98819.55
2018-01-04T00:25:24.188Z,98823.89
2018-01-04T00:27:50.517Z,98823.45
2018-01-04T00:30:16.733Z,98819.98
2018-01-04T00:32:44.081Z,98822.10
2018-01-04T00:35:10.364Z,98839.03
2018-01-04T00:37:36.593Z,98842.50
2018-01-04T00:40:02.835Z,98834.30
2018-01-04T00:42:29.121Z,98830.30
2018-01-04T00:44:55.295Z,98831.69
2018-01-04T00:47:21.521Z,98847.27
2018-01-04T00:49:47.997Z,98840.80
2018-01-04T00:52:14.183Z,98850.36
2018-01-04T00:54:40.394Z,98853.83
2018-01-04T00:57:06.669Z,98859.86
2018-01-04T00:59:32.877Z,98858.07
2018-01-04T01:01:59.099Z,98862.41
2018-01-04T01:04:25.589Z,98877.22
2018-01-04T01:06:51.798Z,98875.86
2018-01-04T01:09:17.998Z,98883.19
2018-01-04T01:11:44.271Z,98886.23
2018-01-04T01:14:10.594Z,98889.27
2018-01-04T01:16:36.815Z,98890.14
2018-01-04T01:19:03.047Z,98888.84
2018-01-04T01:21:29.245Z,98904.45
2018-01-04T01:23:55.466Z,98907.45
2018-01-04T01:26:21.956Z,98913.04
2018-01-04T01:28:48.166Z,98919.98
2018-01-04T01:31:14.473Z,98928.23
2018-01-04T01:33:40.977Z,98925.14
2018-01-04T01:36:07.160Z,98929.53
2018-01-04T01:38:33.371Z,98930.01
2018-01-04T01:40:59.630Z,98929.53
2018-01-04T01:43:25.849Z,98932.13
2018-01-04T01:45:52.296Z,98927.45
2018-01-04T01:48:18.586Z,98934.36
2018-01-04T01:50:44.806Z,98949.93
2018-01-04T01:53:11.073Z,98965.55
2018-01-04T01:55:37.280Z,98973.80
2018-01-04T01:58:03.506Z,98963.48
2018-01-04T02:00:29.729Z,98969.17
2018-01-04T02:02:56.035Z,98963.53
2018-01-04T02:05:22.451Z,98969.61
2018-01-04T02:07:48.636Z,98973.95
2018-01-04T02:10:15.113Z,98977.86
2018-01-04T02:12:41.330Z,98985.70
2018-01-04T02:15:07.564Z,98980.88
2018-01-04T02:17:34.185Z,98977.38
2018-01-04T02:23:17.153Z,98979.20
2018-01-04T02:25:45.218Z,98983.59
2018-01-04T02:28:23.597Z,98986.67
2018-01-04T02:31:02.749Z,98995.78
2018-01-04T02:33:40.843Z,98994.87
2018-01-04T02:36:19.118Z,99003.51
2018-01-04T02:38:57.242Z,99008.28
2018-01-04T02:41:35.856Z,99000.86
2018-01-04T02:44:02.128Z,99010.50
2018-01-04T02:46:28.569Z,99012.23
2018-01-04T02:48:54.763Z,99022.16
2018-01-04T02:51:21.012Z,99011.27
2018-01-04T02:53:47.189Z,99020.81
2018-01-04T02:56:13.389Z,99025.59
2018-01-04T02:58:39.665Z,99019.13
2018-01-04T03:01:05.883Z,99017.83
2018-01-04T03:03:32.104Z,99017.39
2018-01-04T03:05:58.365Z,99021.25
2018-01-04T03:08:24.575Z,99027.28
2018-01-04T03:10:51.041Z,99024.20
2018-01-04T03:13:17.333Z,99025.07
2018-01-04T03:15:43.800Z,99028.97
2018-01-04T03:18:10.013Z,99029.80
2018-01-04T03:20:36.503Z,99028.48
2018-01-04T03:23:09.054Z,99032.40
2018-01-04T03:25:41.477Z,99035.91
2018-01-04T03:28:13.716Z,99028.11
2018-01-04T03:30:46.051Z,99043.29
2018-01-04T03:33:18.301Z,99045.41
2018-01-04T03:35:50.618Z,99048.02
2018-01-04T03:38:22.730Z,99044.55
2018-01-04T03:40:54.878Z,99053.23
2018-01-04T03:43:27.091Z,99059.73
2018-01-04T03:45:59.256Z,99060.61
2018-01-04T03:48:27.366Z,99062.77
2018-01-04T03:50:59.922Z,99058.39
2018-01-04T03:53:32.372Z,99064.42
2018-01-04T03:59:05.633Z,99073.97
2018-01-04T04:01:37.769Z,99075.72
2018-01-04T04:04:04.292Z,99074.84
2018-01-04T04:06:32.402Z,99080.87
2018-01-04T04:08:58.917Z,99083.48
2018-01-04T04:11:25.095Z,99090.89
2018-01-04T04:13:51.319Z,99094.37
2018-01-04T04:16:17.650Z,99093.94
2018-01-04T04:18:43.874Z,99098.72
2018-01-04T04:21:10.084Z,99099.11
2018-01-04T04:23:36.305Z,99101.31
2018-01-04T04:26:02.542Z,99097.36
2018-01-04T04:28:28.936Z,99103.02
2018-01-04T04:30:55.115Z,99101.23
2018-01-04T04:33:21.342Z,99102.61
2018-01-04T04:35:47.587Z,99100.02
2018-01-04T04:38:14.148Z,99109.56
2018-01-04T04:40:40.340Z,99109.56
2018-01-04T04:43:06.569Z,99114.33
2018-01-04T04:45:32.767Z,99111.73
2018-01-04T04:47:58.960Z,99111.73
2018-01-04T04:50:25.218Z,99118.63
2018-01-04T04:52:51.422Z,99120.80
2018-01-04T04:55:17.605Z,99121.20
2018-01-04T04:57:44.180Z,99123.36
2018-01-04T05:00:10.400Z,99121.19
2018-01-04T05:02:36.817Z,99125.97
2018-01-04T05:05:03.068Z,99125.50
2018-01-04T05:07:29.313Z,99132.43
2018-01-04T05:09:55.531Z,99135.52
2018-01-04T05:12:21.772Z,99142.86
2018-01-04T05:14:47.956Z,99135.91
2018-01-04T05:17:14.180Z,99135.03
2018-01-04T05:19:40.744Z,99133.73
2018-01-04T05:22:06.930Z,99130.27
2018-01-04T05:24:33.117Z,99125.92
2018-01-04T05:26:59.386Z,99131.56
2018-01-04T05:29:25.869Z,99123.32
2018-01-04T05:31:52.077Z,99127.66
2018-01-04T05:34:18.629Z,99139.42
2018-01-04T05:36:44.810Z,99142.03
2018-01-04T05:39:10.995Z,99149.41
2018-01-04T05:41:37.278Z,99145.55
2018-01-04T05:44:03.501Z,99154.14
2018-01-04T05:46:29.727Z,99148.93
2018-01-04T05:48:55.992Z,99153.70
2018-01-04T05:51:22.213Z,99151.92
2018-01-04T05:53:48.445Z,99148.41
2018-01-04T05:56:14.702Z,99150.06
2018-01-04T05:58:40.937Z,99146.50
2018-01-04T06:01:07.119Z,99149.91
2018-01-04T06:03:33.608Z,99152.52
2018-01-04T06:05:59.820Z,99153.78
2018-01-04T06:08:26.044Z,99156.39
2018-01-04T06:10:52.526Z,99152.86
2018-01-04T06:13:18.728Z,99153.34
2018-01-04T06:15:44.908Z,99162.03
2018-01-04T06:18:11.169Z,99159.47
2018-01-04T06:20:37.368Z,99159.91
2018-01-04T06:23:03.912Z,99155.13
2018-01-04T06:25:30.413Z,99156.43
2018-01-04T06:27:56.601Z,99165.98
2018-01-04T06:30:22.807Z,99159.47
2018-01-04T06:32:49.064Z,99169.45
2018-01-04T06:35:15.252Z,99175.97
2018-01-04T06:37:41.454Z,99175.53
2018-01-04T06:40:07.725Z,99179.83
2018-01-04T06:42:33.902Z,99175.97
2018-01-04T06:45:00.110Z,99169.45
2018-01-04T06:47:26.611Z,99166.45
2018-01-04T06:49:53.240Z,99179.88
2018-01-04T06:52:19.438Z,99177.70
2018-01-04T06:54:45.886Z,99189.42
2018-01-04T06:57:12.107Z,99182.91
2018-01-04T06:59:38.319Z,99193.37
2018-01-04T07:02:04.595Z,99198.55
2018-01-04T07:04:30.772Z,99196.38
2018-01-04T07:06:56.992Z,99205.93
2018-01-04T07:09:23.260Z,99197.23
2018-01-04T07:11:49.489Z,99207.66
2018-01-04T07:14:15.682Z,99203.76
2018-01-04T07:16:41.937Z,99207.66
2018-01-04T07:19:08.138Z,99205.92
2018-01-04T07:21:34.339Z,99202.45
2018-01-04T07:24:00.628Z,99206.84
2018-01-04T07:26:26.874Z,99202.50
2018-01-04T07:28:53.158Z,99204.62
2018-01-04T07:31:19.431Z,99203.80
2018-01-04T07:33:45.659Z,99209.02
2018-01-04T07:36:12.045Z,99202.06
2018-01-04T07:38:38.315Z,99207.23
2018-01-04T07:41:04.562Z,99212.44
2018-01-04T07:43:30.744Z,99205.88
2018-01-04T07:45:57.035Z,99217.13
2018-01-04T07:48:23.219Z,99215.34
2018-01-04T07:50:49.401Z,99215.25
2018-01-04T07:53:21.813Z,99216.52
2018-01-04T07:55:48.261Z,99207.78
2018-01-04T07:58:14.463Z,99207.70
2018-01-04T08:00:40.760Z,99221.59
2018-01-04T08:03:06.956Z,99212.87
2018-01-04T08:05:33.189Z,99218.08
2018-01-04T08:07:59.516Z,99215.08
2018-01-04T08:10:25.710Z,99212.42
2018-01-04T08:12:51.916Z,99217.20
2018-01-04T08:15:18.156Z,99221.55
2018-01-04T08:17:44.383Z,99215.52
2018-01-04T08:20:10.607Z,99223.33
2018-01-04T08:22:36.888Z,99219.42
2018-01-04T08:25:03.105Z,99217.34
2018-01-04T08:27:29.320Z,99221.68
2018-01-04T08:29:55.835Z,99219.47
2018-01-04T08:32:22.053Z,99216.86
2018-01-04T08:34:48.495Z,99213.86
2018-01-04T08:37:14.752Z,99216.90
2018-01-04T08:39:40.925Z,99215.55
2018-01-04T08:42:07.123Z,99219.89
2018-01-04T08:44:33.419Z,99226.41
2018-01-04T08:46:59.875Z,99234.66
2018-01-04T08:49:26.074Z,99229.84
2018-01-04T08:51:52.375Z,99228.14
2018-01-04T08:54:18.599Z,99236.80
2018-01-04T08:56:44.816Z,99243.69
2018-01-04T08:59:11.115Z,99244.56
2018-01-04T09:01:37.323Z,99244.60
2018-01-04T09:04:04.350Z,99241.95
2018-01-04T09:06:30.617Z,99244.56
2018-01-04T09:08:56.829Z,99245.04
2018-01-04T09:11:23.011Z,99241.09
2018-01-04T09:13:49.571Z,99244.48
2018-01-04T09:16:15.796Z,99232.36
2018-01-04T09:18:42.008Z,99240.17
2018-01-04T09:21:08.312Z,99226.28
2018-01-04T09:23:34.825Z,99237.53
2018-01-04T09:26:01.049Z,99235.74
2018-01-04T09:28:27.313Z,99237.05
2018-01-04T09:30:53.509Z,99246.13
2018-01-04T09:33:19.684Z,99249.52
2018-01-04T09:35:45.978Z,99247.33
2018-01-04T09:38:12.389Z,99247.25
2018-01-04T09:40:38.621Z,99252.41
2018-01-04T09:43:04.878Z,99245.89
2018-01-04T09:45:31.111Z,99248.50
2018-01-04T09:47:57.283Z,99250.68
2018-01-04T09:50:23.553Z,99257.20
2018-01-04T09:52:49.725Z,99260.23
2018-01-04T09:55:15.936Z,99261.97
2018-01-04T09:57:42.209Z,99262.84
2018-01-04T10:00:08.394Z,99256.38
2018-01-04T10:02:34.625Z,99259.80
2018-01-04T10:05:01.258Z,99256.80
2018-01-04T10:07:27.283Z,99255.45
2018-01-04T10:09:53.734Z,99255.84
2018-01-04T10:12:20.020Z,99257.58
2018-01-04T10:14:46.234Z,99256.27
2018-01-04T10:17:12.439Z,99253.23
2018-01-04T10:19:38.716Z,99250.62
2018-01-04T10:22:04.984Z,99250.16
2018-01-04T10:24:31.202Z,99244.47
2018-01-04T10:26:57.496Z,99254.45
2018-01-04T10:29:23.721Z,99252.23
2018-01-04T10:31:49.957Z,99260.05
2018-01-04T10:34:16.241Z,99254.41
2018-01-04T10:36:42.505Z,99255.27
2018-01-04T10:39:08.714Z,99251.75
2018-01-04T10:41:34.959Z,99250.05
2018-01-04T10:44:01.225Z,99253.97
2018-01-04T10:46:27.449Z,99253.11
2018-01-04T10:48:53.694Z,99252.70
2018-01-04T10:51:19.904Z,99241.23
2018-01-04T10:53:46.089Z,99236.77
2018-01-04T10:56:12.347Z,99232.51
2018-01-04T10:58:38.571Z,99236.89
2018-01-04T11:01:04.781Z,99237.77
2018-01-04T11:03:31.324Z,99242.15
2018-01-04T11:05:57.527Z,99237.33
2018-01-04T11:08:23.737Z,99225.94
2018-01-04T11:10:49.982Z,99224.50
2018-01-04T11:13:16.520Z,99223.89
2018-01-04T11:15:42.957Z,99219.52
2018-01-04T11:18:09.200Z,99224.75
2018-01-04T11:20:35.404Z,99215.67
2018-01-04T11:23:01.604Z,99217.84
2018-01-04T11:25:27.861Z,99215.28
2018-01-04T11:27:54.038Z,99206.17
2018-01-04T11:30:20.226Z,99203.17
2018-01-04T11:32:46.485Z,99210.55
2018-01-04T11:35:12.699Z,99210.13
2018-01-04T11:37:39.012Z,99209.69
2018-01-04T11:40:05.304Z,99205.30
2018-01-04T11:42:31.487Z,99193.08
2018-01-04T11:44:57.697Z,99199.14
2018-01-04T11:47:24.176Z,99193.88
2018-01-04T11:49:50.763Z,99195.59
2018-01-04T11:52:16.995Z,99193.31
2018-01-04T11:54:43.266Z,99193.83
2018-01-04T11:57:09.486Z,99188.23
2018-01-04T11:59:35.688Z,99187.41
2018-01-04T12:02:01.933Z,99185.63
2018-01-04T12:04:28.346Z,99184.33
2018-01-04T12:06:54.560Z,99198.28
2018-01-04T12:09:20.846Z,99199.55
2018-01-04T12:11:47.059Z,99204.34
2018-01-04T12:14:13.353Z,99203.11
2018-01-04T12:16:39.633Z,99204.80
2018-01-04T12:19:05.831Z,99201.81
2018-01-04T12:21:32.012Z,99202.64
2018-01-04T12:23:58.265Z,99203.11
2018-01-04T12:26:24.490Z,99197.91
2018-01-04T12:28:50.680Z,99201.37
2018-01-04T12:31:16.951Z,99196.16
2018-01-04T12:33:43.196Z,99195.34
2018-01-04T12:36:09.411Z,99191.88
2018-01-04T12:38:35.719Z,99187.09
2018-01-04T12:41:01.931Z,99188.83
2018-01-04T12:43:28.502Z,99181.49
2018-01-04T12:45:54.781Z,99183.62
2018-01-04T12:48:21.241Z,99177.09
2018-01-04T12:50:47.486Z,99167.93
2018-01-04T12:53:13.993Z,99171.36
2018-01-04T12:55:40.561Z,99162.19
2018-01-04T12:58:06.794Z,99164.30
2018-01-04T13:00:33.091Z,99143.48
2018-01-04T13:02:59.310Z,99143.83
2018-01-04T13:05:25.488Z,99148.90
2018-01-04T13:07:51.724Z,99151.41
2018-01-04T13:10:17.953Z,99147.06
2018-01-04T13:12:44.157Z,99143.09
2018-01-04T13:15:10.424Z,99142.19
2018-01-04T13:17:36.608Z,99142.56
2018-01-04T13:20:02.810Z,99139.95
2018-01-04T13:22:29.072Z,99143.83
2018-01-04T13:24:55.300Z,99147.25
2018-01-04T13:27:21.498Z,99145.47
2018-01-04T13:29:47.771Z,99139.37
2018-01-04T13:32:14.033Z,99146.33
2018-01-04T13:34:40.262Z,99141.55
2018-01-04T13:37:06.504Z,99142.86
2018-01-04T13:39:32.802Z,99145.41
2018-01-04T13:41:59.026Z,99149.72
2018-01-04T13:44:25.264Z,99147.59
2018-01-04T13:46:51.445Z,99152.81
2018-01-04T13:49:17.620Z,99138.89
2018-01-04T13:51:43.992Z,99141.98
2018-01-04T13:54:10.206Z,99136.87
2018-01-04T13:56:36.412Z,99136.88
2018-01-04T13:59:02.678Z,99139.97
2018-01-04T14:01:29.125Z,99137.36
2018-01-04T14:03:55.586Z,99139.14
2018-01-04T14:06:21.838Z,99135.23
2018-01-04T14:08:48.017Z,99137.84
2018-01-04T14:11:14.490Z,99136.09
2018-01-04T14:13:40.715Z,99136.54
2018-01-04T14:16:07.180Z,99133.11
2018-01-04T14:18:33.361Z,99128.38
2018-01-04T14:20:59.665Z,99128.38
2018-01-04T14:23:25.871Z,99129.33
2018-01-04T14:25:52.313Z,99124.51
2018-01-04T14:28:18.597Z,99122.29
2018-01-04T14:30:50.875Z,99123.64
2018-01-04T14:33:17.136Z,99124.47
2018-01-04T14:35:43.413Z,99120.16
2018-01-04T14:38:09.607Z,99111.91
2018-01-04T14:40:35.783Z,99106.70
2018-01-04T14:43:02.053Z,99104.91
2018-01-04T14:45:28.510Z,99103.13
2018-01-04T14:47:54.733Z,99102.69
2018-01-04T14:50:21.032Z,99099.20
2018-01-04T14:52:47.313Z,99093.56
2018-01-04T14:55:13.524Z,99089.65
2018-01-04T14:57:39.823Z,99093.12
2018-01-04T15:00:06.384Z,99085.73
2018-01-04T15:02:32.606Z,99075.73
2018-01-04T15:04:58.898Z,99073.09
2018-01-04T15:07:25.126Z,99071.35
2018-01-04T15:09:51.339Z,99074.83
2018-01-04T15:12:17.694Z,99069.61
2018-01-04T15:14:43.923Z,99060.09
2018-01-04T15:17:10.129Z,99062.71
2018-01-04T15:19:36.368Z,99061.84
2018-01-04T15:22:02.590Z,99059.70
2018-01-04T15:24:28.769Z,99069.70
2018-01-04T15:26:55.030Z,99058.84
2018-01-04T15:29:21.272Z,99056.63
2018-01-04T15:31:47.705Z,99056.19
2018-01-04T15:34:14.401Z,99049.66
2018-01-04T15:36:40.602Z,99046.19
2018-01-04T15:39:06.819Z,99037.55
2018-01-04T15:41:33.114Z,99040.50
2018-01-04T15:43:59.310Z,99035.75
2018-01-04T15:46:25.501Z,99028.80
2018-01-04T15:48:51.768Z,99027.50
2018-01-04T15:51:17.981Z,99026.59
2018-01-04T15:53:44.200Z,99026.16
2018-01-04T15:56:10.481Z,99024.84
2018-01-04T15:58:36.649Z,99013.59
2018-01-04T16:01:02.852Z,99009.64
2018-01-04T16:03:29.116Z,99003.99
2018-01-04T16:05:55.350Z,99000.55
2018-01-04T16:08:21.569Z,99000.47
2018-01-04T16:10:47.872Z,98994.44
2018-01-04T16:13:14.088Z,98991.39
2018-01-04T16:15:40.289Z,98987.05
2018-01-04T16:18:06.563Z,98985.31
2018-01-04T16:20:32.754Z,98977.92
2018-01-04T16:22:59.255Z,98969.22
2018-01-04T16:25:25.529Z,98972.70
2018-01-04T16:27:51.716Z,98972.70
2018-01-04T16:30:17.949Z,98973.91
2018-01-04T16:32:44.249Z,98963.97
2018-01-04T16:35:10.510Z,98963.14
2018-01-04T16:37:36.711Z,98947.44
2018-01-04T16:40:02.953Z,98943.53
2018-01-04T16:42:29.245Z,98939.57
2018-01-04T16:44:55.453Z,98931.73
2018-01-04T16:47:21.723Z,98930.43
2018-01-04T16:49:47.939Z,98918.66
2018-01-04T16:52:14.133Z,98923.38
2018-01-04T16:54:40.656Z,98920.77
2018-01-04T16:57:06.880Z,98919.86
2018-01-04T16:59:33.122Z,98915.03
2018-01-04T17:01:59.361Z,98909.37
2018-01-04T17:04:25.585Z,98898.99
2018-01-04T17:06:51.827Z,98889.91
2018-01-04T17:09:18.109Z,98895.52
2018-01-04T17:11:44.328Z,98899.86
2018-01-04T17:14:10.528Z,98894.64
2018-01-04T17:16:37.129Z,98893.30
2018-01-04T17:19:03.332Z,98901.11
2018-01-04T17:21:29.538Z,98897.64
2018-01-04T17:23:55.802Z,98897.64
2018-01-04T17:26:22.000Z,98895.45
2018-01-04T17:28:48.212Z,98894.09
2018-01-04T17:31:14.510Z,98889.31
2018-01-04T17:33:40.722Z,98893.28
2018-01-04T17:36:06.930Z,98884.55
2018-01-04T17:38:33.218Z,98877.97
2018-01-04T17:40:59.431Z,98876.67
2018-01-04T17:43:25.759Z,98869.75
2018-01-04T17:45:52.046Z,98873.25
2018-01-04T17:48:18.256Z,98871.56
2018-01-04T17:50:44.448Z,98869.34
2018-01-04T17:53:10.715Z,98869.34
2018-01-04T17:55:36.914Z,98863.30
2018-01-04T17:58:03.102Z,98861.52
2018-01-04T18:00:29.382Z,98849.34
2018-01-04T18:02:55.581Z,98848.52
2018-01-04T18:05:21.773Z,98843.73
2018-01-04T18:07:48.264Z,98844.55
2018-01-04T18:10:14.482Z,98838.03
2018-01-04T18:12:40.694Z,98835.85
2018-01-04T18:15:07.009Z,98834.50
2018-01-04T18:17:33.465Z,98834.94
2018-01-04T18:19:59.660Z,98829.73
2018-01-04T18:22:25.917Z,98827.17
2018-01-04T18:24:52.129Z,98834.99
2018-01-04T18:27:18.360Z,98827.17
2018-01-04T18:29:44.638Z,98825.92
2018-01-04T18:32:11.089Z,98823.27
2018-01-04T18:34:37.285Z,98821.57
2018-01-04T18:37:03.774Z,98819.84
2018-01-04T18:39:29.988Z,98816.31
2018-01-04T18:42:02.093Z,98807.56
2018-01-04T18:44:28.387Z,98808.92
2018-01-04T18:46:54.583Z,98803.70
2018-01-04T18:49:20.773Z,98806.31
2018-01-04T18:51:47.041Z,98802.41
2018-01-04T18:54:13.234Z,98799.80
2018-01-04T18:56:39.751Z,98801.16
2018-01-04T18:59:05.996Z,98794.53
2018-01-04T19:01:32.184Z,98788.87
2018-01-04T19:03:58.431Z,98777.56
2018-01-04T19:06:24.672Z,98775.39
2018-01-04T19:08:50.876Z,98764.09
2018-01-04T19:11:17.075Z,98759.75
2018-01-04T19:13:43.329Z,98754.05
2018-01-04T19:16:09.519Z,98748.41
2018-01-04T19:18:35.712Z,98749.70
2018-01-04T19:21:01.986Z,98741.44
2018-01-04T19:23:28.188Z,98740.95
2018-01-04T19:25:54.386Z,98742.20
2018-01-04T19:28:20.666Z,98730.08
2018-01-04T19:30:46.884Z,98733.56
2018-01-04T19:33:13.112Z,98733.98
2018-01-04T19:35:39.403Z,98732.25
2018-01-04T19:38:05.641Z,98727.04
2018-01-04T19:40:31.828Z,98730.58
2018-01-04T19:42:58.098Z,98718.78
2018-01-04T19:45:24.376Z,98714.02
2018-01-04T19:47:50.610Z,98712.31
2018-01-04T19:50:16.888Z,98718.34
2018-01-04T19:52:43.100Z,98715.73
2018-01-04T19:55:09.302Z,98709.21
2018-01-04T19:57:35.656Z,98704.00
2018-01-04T20:00:01.843Z,98696.58
2018-01-04T20:02:28.040Z,98688.69
2018-01-04T20:04:54.554Z,98680.47
2018-01-04T20:07:20.770Z,98672.64
2018-01-04T20:09:46.955Z,98664.83
2018-01-04T20:12:13.218Z,98663.95
2018-01-04T20:14:39.468Z,98651.73
2018-01-04T20:17:05.652Z,98645.66
2018-01-04T20:19:31.901Z,98640.00
2018-01-04T20:21:58.120Z,98639.56
2018-01-04T20:24:24.392Z,98625.72
2018-01-04T20:26:50.679Z,98620.95
2018-01-04T20:29:16.869Z,98619.63
2018-01-04T20:31:43.079Z,98617.45
2018-01-04T20:34:09.684Z,98613.06
2018-01-04T20:36:36.214Z,98600.93
2018-01-04T20:39:02.513Z,98607.03
2018-01-04T20:41:28.747Z,98605.72
2018-01-04T20:43:55.188Z,98604.41
2018-01-04T20:46:21.376Z,98597.89
2018-01-04T20:48:47.637Z,98595.23
2018-01-04T20:51:13.834Z,98585.23
2018-01-04T20:53:40.085Z,98577.86
2018-01-04T20:56:06.383Z,98576.55
2018-01-04T20:58:32.603Z,98581.38
2018-01-04T21:00:58.800Z,98587.41
2018-01-04T21:03:25.036Z,98579.16
2018-01-04T21:05:51.234Z,98581.75
2018-01-04T21:08:17.482Z,98585.66
2018-01-04T21:10:43.746Z,98572.56
2018-01-04T21:13:09.980Z,98558.61
2018-01-04T21:15:36.196Z,98577.34
2018-01-04T21:18:02.446Z,98573.37
2018-01-04T21:20:28.614Z,98569.95
2018-01-04T21:22:54.845Z,98567.30
2018-01-04T21:25:21.122Z,98566.04
2018-01-04T21:27:47.315Z,98569.05
2018-01-04T21:30:13.526Z,98572.45
2018-01-04T21:32:39.785Z,98568.59
2018-01-04T21:35:05.976Z,98563.44
2018-01-04T21:37:32.151Z,98557.73
2018-01-04T21:39:58.418Z,98556.01
2018-01-04T21:42:24.616Z,98552.51
2018-01-04T21:44:50.820Z,98545.51
2018-01-04T21:47:17.309Z,98549.42
2018-01-04T21:49:43.578Z,98559.41
2018-01-04T21:52:09.753Z,98551.10
2018-01-04T21:54:36.018Z,98540.22
2018-01-04T21:57:02.244Z,98537.67
2018-01-04T21:59:28.487Z,98539.84
2018-01-04T22:01:54.734Z,98535.89
2018-01-04T22:04:20.964Z,98532.83
2018-01-04T22:06:47.153Z,98541.08
2018-01-04T22:09:13.391Z,98533.28
2018-01-04T22:11:39.594Z,98528.06
2018-01-04T22:14:05.798Z,98529.36
2018-01-04T22:16:32.070Z,98525.02
2018-01-04T22:18:58.260Z,98523.72
2018-01-04T22:21:24.476Z,98522.41
2018-01-04T22:23:50.829Z,98520.66
2018-01-04T22:26:17.014Z,98512.41
2018-01-04T22:28:43.213Z,98512.46
2018-01-04T22:31:09.525Z,98519.41
2018-01-04T22:33:35.741Z,98514.20
2018-01-04T22:36:01.949Z,98514.20
2018-01-04T22:38:28.206Z,98519.81
2018-01-04T22:40:54.430Z,98516.38
2018-01-04T22:43:20.616Z,98511.17
2018-01-04T22:45:46.891Z,98509.97
2018-01-04T22:48:13.089Z,98509.50
2018-01-04T22:50:39.362Z,98509.48
2018-01-04T22:53:05.631Z,98508.17
2018-01-04T22:55:31.830Z,98512.89
2018-01-04T22:57:58.025Z,98507.27
2018-01-04T23:00:24.388Z,98510.80
2018-01-04T23:02:50.578Z,98509.99
2018-01-04T23:05:16.776Z,98512.16
2018-01-04T23:07:43.025Z,98505.63
2018-01-04T23:10:09.237Z,98493.02
2018-01-04T23:12:35.449Z,98500.86
2018-01-04T23:15:01.702Z,98494.77
2018-01-04T23:17:27.992Z,98497.00
2018-01-04T23:19:54.193Z,98497.88
2018-01-04T23:22:20.472Z,98510.47
2018-01-04T23:24:46.666Z,98503.05
2018-01-04T23:27:12.865Z,98507.86
2018-01-04T23:29:39.143Z,98518.67
2018-01-04T23:32:05.357Z,98522.16
2018-01-04T23:34:31.567Z,98531.34
2018-01-04T23:36:57.890Z,98555.25
2018-01-04T23:39:24.108Z,98544.08
2018-01-04T23:41:50.308Z,98553.25
2018-01-04T23:44:16.637Z,98561.56
2018-01-04T23:46:42.872Z,98573.81
2018-01-04T23:49:09.086Z,98578.17
2018-01-04T23:51:35.682Z,98571.75
2018-01-04T23:54:01.900Z,98590.44
2018-01-04T23:56:28.173Z,98582.67
2018-01-04T23:58:54.450Z,98589.20
